createdAt,value
2023-02-23T00:00:50.912Z,16.40
2023-02-23T00:01:51.112Z,21.60
2023-02-23T00:02:51.357Z,16.30
2023-02-23T00:03:51.440Z,20.10
2023-02-23T00:04:51.631Z,23.10
2023-02-23T00:05:51.788Z,23.10
2023-02-23T00:06:52.184Z,19.60
2023-02-23T00:07:52.188Z,19.50
2023-02-23T00:08:52.365Z,23.30
2023-02-23T00:09:52.531Z,18.70
2023-02-23T00:10:52.703Z,20.30
2023-02-23T00:11:52.879Z,19.80
2023-02-23T00:12:52.992Z,22.50
2023-02-23T00:13:53.203Z,24.00
2023-02-23T00:14:53.404Z,25.90
2023-02-23T00:15:53.557Z,25.40
2023-02-23T00:16:53.730Z,20.90
2023-02-23T00:17:53.910Z,20.70
2023-02-23T00:18:54.165Z,23.50
2023-02-23T00:19:54.290Z,21.00
2023-02-23T00:20:54.437Z,19.70
2023-02-23T00:21:54.655Z,20.50
2023-02-23T00:22:54.802Z,23.60
2023-02-23T00:23:54.969Z,19.90
2023-02-23T00:24:55.164Z,22.00
2023-02-23T00:25:55.323Z,24.20
2023-02-23T00:26:55.531Z,23.80
2023-02-23T00:27:55.670Z,24.30
2023-02-23T00:28:55.865Z,29.60
2023-02-23T00:29:56.156Z,15.00
2023-02-23T00:30:56.960Z,28.40
2023-02-23T00:31:56.515Z,17.90
2023-02-23T00:32:56.566Z,24.30
2023-02-23T00:33:56.745Z,21.20
2023-02-23T00:34:56.933Z,20.40
2023-02-23T00:35:57.091Z,21.30
2023-02-23T00:36:57.454Z,24.70
2023-02-23T00:37:57.444Z,22.80
2023-02-23T00:38:57.653Z,20.80
2023-02-23T00:39:57.821Z,23.40
2023-02-23T00:40:58.047Z,22.20
2023-02-23T00:41:58.144Z,21.80
2023-02-23T00:42:58.338Z,27.30
2023-02-23T00:43:58.531Z,23.00
2023-02-23T00:44:58.694Z,19.70
2023-02-23T00:45:58.931Z,27.30
2023-02-23T00:46:59.016Z,27.80
2023-02-23T00:47:59.183Z,19.30
2023-02-23T00:48:59.362Z,21.40
2023-02-23T00:49:59.555Z,16.80
2023-02-23T00:50:59.708Z,23.30
2023-02-23T00:51:59.884Z,23.20
2023-02-23T00:53:00.095Z,22.50
2023-02-23T00:54:00.240Z,22.10
2023-02-23T00:55:00.405Z,21.00
2023-02-23T00:56:00.565Z,26.00
2023-02-23T00:57:00.818Z,25.20
2023-02-23T00:58:00.924Z,22.40
2023-02-23T00:59:01.119Z,23.70
2023-02-23T01:00:01.411Z,26.10
2023-02-23T01:01:01.504Z,20.00
2023-02-23T01:02:01.663Z,21.20
2023-02-23T01:03:01.846Z,22.20
2023-02-23T01:04:02.001Z,29.20
2023-02-23T01:05:02.190Z,30.00
2023-02-23T01:06:02.344Z,22.70
2023-02-23T01:07:02.595Z,19.50
2023-02-23T01:08:02.710Z,18.40
2023-02-23T01:09:02.955Z,20.20
2023-02-23T01:10:03.087Z,20.90
2023-02-23T01:11:03.262Z,21.70
2023-02-23T01:12:03.499Z,21.70
2023-02-23T01:13:03.585Z,20.40
2023-02-23T01:14:03.780Z,20.50
2023-02-23T01:15:04.019Z,26.60
2023-02-23T01:16:04.161Z,23.90
2023-02-23T01:17:04.286Z,21.70
2023-02-23T01:18:04.475Z,23.40
2023-02-23T01:19:04.654Z,21.10
2023-02-23T01:20:04.843Z,29.10
2023-02-23T01:21:04.977Z,20.10
2023-02-23T01:22:05.174Z,26.30
2023-02-23T01:23:05.352Z,22.40
2023-02-23T01:24:05.532Z,24.50
2023-02-23T01:25:05.726Z,23.30
2023-02-23T01:26:05.881Z,23.10
2023-02-23T01:27:06.067Z,23.30
2023-02-23T01:28:06.244Z,25.30
2023-02-23T01:29:06.430Z,24.90
2023-02-23T01:30:06.630Z,23.90
2023-02-23T01:31:06.895Z,26.60
2023-02-23T01:32:07.068Z,23.30
2023-02-23T01:33:07.123Z,25.50
2023-02-23T01:34:07.313Z,28.30
2023-02-23T01:35:07.511Z,21.40
2023-02-23T01:36:07.660Z,23.00
2023-02-23T01:37:07.835Z,22.50
2023-02-23T01:38:08.020Z,23.40
2023-02-23T01:39:08.206Z,32.10
2023-02-23T01:40:08.436Z,24.10
2023-02-23T01:41:08.603Z,27.50
2023-02-23T01:42:08.752Z,22.50
2023-02-23T01:43:08.922Z,25.00
2023-02-23T01:44:09.182Z,29.50
2023-02-23T01:45:09.320Z,28.60
2023-02-23T01:46:09.496Z,26.80
2023-02-23T01:47:09.725Z,20.30
2023-02-23T01:48:09.825Z,25.80
2023-02-23T01:49:10.027Z,23.90
2023-02-23T01:50:10.204Z,24.80
2023-02-23T01:51:10.352Z,25.40
2023-02-23T01:52:10.532Z,28.70
2023-02-23T01:53:10.737Z,28.10
2023-02-23T01:54:10.881Z,24.50
2023-02-23T01:55:11.189Z,27.50
2023-02-23T01:56:11.237Z,28.90
2023-02-23T01:57:11.436Z,32.30
2023-02-23T01:58:11.638Z,22.70
2023-02-23T01:59:11.775Z,30.80
2023-02-23T02:00:11.962Z,27.90
2023-02-23T02:01:12.210Z,33.60
2023-02-23T02:02:12.290Z,24.80
2023-02-23T02:03:12.485Z,26.10
2023-02-23T02:04:12.701Z,26.00
2023-02-23T02:05:12.955Z,25.00
2023-02-23T02:06:13.000Z,27.20
2023-02-23T02:07:13.204Z,25.90
2023-02-23T02:08:13.350Z,26.60
2023-02-23T02:09:13.542Z,28.50
2023-02-23T02:10:13.730Z,28.60
2023-02-23T02:11:13.899Z,25.00
2023-02-23T02:12:14.042Z,30.20
2023-02-23T02:13:14.321Z,25.10
2023-02-23T02:14:14.419Z,32.90
2023-02-23T02:15:14.708Z,27.60
2023-02-23T02:16:14.852Z,30.60
2023-02-23T02:17:14.961Z,28.70
2023-02-23T02:18:15.152Z,27.20
2023-02-23T02:19:15.302Z,28.90
2023-02-23T02:20:15.501Z,24.30
2023-02-23T02:21:15.834Z,30.30
2023-02-23T02:22:15.835Z,25.40
2023-02-23T02:23:16.028Z,28.60
2023-02-23T02:24:16.243Z,26.10
2023-02-23T02:25:16.384Z,25.90
2023-02-23T02:26:16.572Z,25.60
2023-02-23T02:27:16.766Z,28.00
2023-02-23T02:28:16.900Z,23.70
2023-02-23T02:29:17.094Z,29.70
2023-02-23T02:30:17.286Z,25.80
2023-02-23T02:31:17.970Z,31.70
2023-02-23T02:32:17.744Z,26.10
2023-02-23T02:33:17.822Z,24.00
2023-02-23T02:34:17.968Z,32.30
2023-02-23T02:35:18.158Z,32.70
2023-02-23T02:36:18.380Z,30.70
2023-02-23T02:37:18.547Z,28.30
2023-02-23T02:38:18.698Z,30.80
2023-02-23T02:39:18.868Z,32.70
2023-02-23T02:40:19.029Z,31.20
2023-02-23T02:41:19.517Z,30.70
2023-02-23T02:42:19.357Z,29.10
2023-02-23T02:43:19.537Z,25.20
2023-02-23T02:44:19.795Z,24.90
2023-02-23T02:45:19.903Z,26.40
2023-02-23T02:46:20.115Z,29.50
2023-02-23T02:47:20.344Z,21.70
2023-02-23T02:48:20.437Z,25.00
2023-02-23T02:49:20.634Z,28.80
2023-02-23T02:50:20.820Z,31.40
2023-02-23T02:51:21.317Z,27.30
2023-02-23T02:52:21.122Z,29.20
2023-02-23T02:53:21.326Z,30.10
2023-02-23T02:54:21.469Z,32.60
2023-02-23T02:55:21.633Z,33.60
2023-02-23T02:56:21.850Z,29.50
2023-02-23T02:57:21.979Z,29.90
2023-02-23T02:58:22.160Z,23.30
2023-02-23T02:59:22.351Z,31.10
2023-02-23T03:00:22.511Z,29.50
2023-02-23T03:01:22.746Z,25.60
2023-02-23T03:02:22.840Z,25.40
2023-02-23T03:03:23.021Z,27.90
2023-02-23T03:04:23.216Z,26.70
2023-02-23T03:05:23.434Z,29.10
2023-02-23T03:06:23.598Z,30.50
2023-02-23T03:07:23.769Z,27.60
2023-02-23T03:08:23.943Z,31.70
2023-02-23T03:09:24.107Z,29.30
2023-02-23T03:10:24.261Z,25.90
2023-02-23T03:11:24.537Z,28.80
2023-02-23T03:12:24.631Z,28.30
2023-02-23T03:13:24.810Z,27.10
2023-02-23T03:14:25.027Z,28.40
2023-02-23T03:15:25.140Z,31.40
2023-02-23T03:16:25.427Z,35.90
2023-02-23T03:17:25.540Z,28.10
2023-02-23T03:18:25.678Z,27.40
2023-02-23T03:19:25.839Z,31.50
2023-02-23T03:20:26.092Z,31.90
2023-02-23T03:21:26.212Z,25.50
2023-02-23T03:22:26.365Z,30.70
2023-02-23T03:23:26.551Z,27.90
2023-02-23T03:24:26.704Z,32.60
2023-02-23T03:25:26.867Z,31.50
2023-02-23T03:26:27.040Z,31.70
2023-02-23T03:27:27.204Z,32.70
2023-02-23T03:28:27.368Z,31.50
2023-02-23T03:29:27.608Z,30.10
2023-02-23T03:30:27.740Z,34.50
2023-02-23T03:31:27.902Z,36.00
2023-02-23T03:32:28.096Z,26.20
2023-02-23T03:33:28.203Z,33.30
2023-02-23T03:34:28.365Z,33.30
2023-02-23T03:35:28.526Z,39.60
2023-02-23T03:36:28.698Z,32.60
2023-02-23T03:37:28.858Z,28.60
2023-02-23T03:38:29.016Z,28.60
2023-02-23T03:39:29.178Z,28.80
2023-02-23T03:40:29.338Z,27.60
2023-02-23T03:41:29.532Z,26.70
2023-02-23T03:42:29.656Z,27.50
2023-02-23T03:43:29.915Z,29.80
2023-02-23T03:44:30.030Z,32.50
2023-02-23T03:45:30.238Z,34.60
2023-02-23T03:46:30.420Z,27.10
2023-02-23T03:47:30.546Z,28.10
2023-02-23T03:48:30.707Z,30.30
2023-02-23T03:49:30.957Z,27.50
2023-02-23T03:50:31.041Z,32.90
2023-02-23T03:51:31.246Z,39.90
2023-02-23T03:52:31.429Z,31.40
2023-02-23T03:53:31.559Z,27.60
2023-02-23T03:54:31.729Z,31.70
2023-02-23T03:55:31.928Z,34.60
2023-02-23T03:56:32.090Z,31.20
2023-02-23T03:57:32.263Z,29.70
2023-02-23T03:58:32.448Z,29.50
2023-02-23T03:59:32.627Z,28.70
2023-02-23T04:00:32.776Z,21.30
2023-02-23T04:01:32.978Z,27.00
2023-02-23T04:02:33.167Z,29.10
2023-02-23T04:03:33.361Z,30.80
2023-02-23T04:04:33.493Z,30.00
2023-02-23T04:05:33.692Z,36.80
2023-02-23T04:06:33.864Z,35.30
2023-02-23T04:07:34.029Z,36.90
2023-02-23T04:08:34.211Z,28.50
2023-02-23T04:09:34.372Z,30.50
2023-02-23T04:10:34.531Z,29.80
2023-02-23T04:11:34.821Z,34.40
2023-02-23T04:12:34.862Z,34.50
2023-02-23T04:13:35.027Z,28.90
2023-02-23T04:14:35.264Z,31.00
2023-02-23T04:15:35.351Z,33.00
2023-02-23T04:16:35.533Z,32.80
2023-02-23T04:17:35.747Z,34.70
2023-02-23T04:18:35.873Z,32.50
2023-02-23T04:19:36.040Z,33.60
2023-02-23T04:20:36.258Z,30.00
2023-02-23T04:21:36.391Z,35.40
2023-02-23T04:22:36.550Z,32.70
2023-02-23T04:23:36.763Z,34.50
2023-02-23T04:24:36.882Z,39.20
2023-02-23T04:25:37.048Z,33.50
2023-02-23T04:26:37.224Z,28.10
2023-02-23T04:27:37.396Z,36.70
2023-02-23T04:28:37.571Z,28.50
2023-02-23T04:29:37.742Z,31.40
2023-02-23T04:30:38.042Z,34.50
2023-02-23T04:31:38.197Z,31.60
2023-02-23T04:32:38.342Z,30.40
2023-02-23T04:33:38.409Z,32.70
2023-02-23T04:34:38.561Z,33.10
2023-02-23T04:35:38.733Z,40.20
2023-02-23T04:36:38.904Z,35.30
2023-02-23T04:37:39.069Z,31.10
2023-02-23T04:38:39.231Z,32.80
2023-02-23T04:39:39.404Z,28.10
2023-02-23T04:40:39.570Z,33.10
2023-02-23T04:41:39.752Z,33.40
2023-02-23T04:42:39.912Z,23.50
2023-02-23T04:43:40.093Z,31.50
2023-02-23T04:44:40.339Z,32.80
2023-02-23T04:45:40.435Z,37.60
2023-02-23T04:46:40.670Z,30.70
2023-02-23T04:47:40.777Z,32.60
2023-02-23T04:48:40.900Z,27.30
2023-02-23T04:49:41.104Z,34.90
2023-02-23T04:50:41.253Z,31.50
2023-02-23T04:51:41.437Z,31.80
2023-02-23T04:52:41.598Z,35.00
2023-02-23T04:53:41.753Z,36.00
2023-02-23T04:54:41.918Z,33.40
2023-02-23T04:55:42.098Z,32.90
2023-02-23T04:56:42.262Z,31.20
2023-02-23T04:57:42.499Z,29.00
2023-02-23T04:58:42.612Z,32.50
2023-02-23T04:59:42.784Z,31.10
2023-02-23T05:00:43.026Z,31.60
2023-02-23T05:01:43.201Z,27.60
2023-02-23T05:02:43.289Z,36.40
2023-02-23T05:03:43.478Z,39.30
2023-02-23T05:04:43.643Z,27.00
2023-02-23T05:05:43.805Z,32.90
2023-02-23T05:06:43.969Z,37.80
2023-02-23T05:07:44.234Z,31.80
2023-02-23T05:08:44.301Z,34.60
2023-02-23T05:09:44.461Z,32.80
2023-02-23T05:10:44.663Z,30.00
2023-02-23T05:11:44.800Z,39.00
2023-02-23T05:12:44.961Z,32.70
2023-02-23T05:13:45.249Z,34.80
2023-02-23T05:14:45.308Z,29.50
2023-02-23T05:15:45.530Z,34.00
2023-02-23T05:16:45.670Z,34.80
2023-02-23T05:17:45.830Z,32.80
2023-02-23T05:18:45.995Z,31.30
2023-02-23T05:19:46.161Z,34.60
2023-02-23T05:20:46.337Z,32.00
2023-02-23T05:21:46.492Z,33.30
2023-02-23T05:22:46.660Z,35.10
2023-02-23T05:23:46.821Z,27.70
2023-02-23T05:24:46.988Z,33.70
2023-02-23T05:25:47.237Z,34.30
2023-02-23T05:26:47.345Z,39.70
2023-02-23T05:27:47.511Z,34.70
2023-02-23T05:28:47.683Z,34.50
2023-02-23T05:29:47.844Z,32.60
2023-02-23T05:30:48.091Z,36.80
2023-02-23T05:31:48.319Z,30.20
2023-02-23T05:32:48.359Z,35.30
2023-02-23T05:33:48.526Z,30.40
2023-02-23T05:34:48.693Z,36.70
2023-02-23T05:35:48.872Z,33.60
2023-02-23T05:36:49.050Z,41.10
2023-02-23T05:37:49.211Z,30.90
2023-02-23T05:38:49.375Z,30.40
2023-02-23T05:39:49.620Z,33.40
2023-02-23T05:40:49.697Z,30.50
2023-02-23T05:41:49.876Z,37.10
2023-02-23T05:42:50.100Z,34.80
2023-02-23T05:43:50.204Z,31.30
2023-02-23T05:44:50.384Z,30.50
2023-02-23T05:45:50.720Z,39.90
2023-02-23T05:46:50.754Z,35.20
2023-02-23T05:47:50.893Z,30.60
2023-02-23T05:48:51.099Z,36.60
2023-02-23T05:49:51.242Z,32.30
2023-02-23T05:50:51.393Z,34.40
2023-02-23T05:51:51.625Z,31.50
2023-02-23T05:52:51.754Z,34.70
2023-02-23T05:53:51.934Z,34.70
2023-02-23T05:54:52.124Z,36.40
2023-02-23T05:55:52.341Z,34.60
2023-02-23T05:56:52.490Z,35.10
2023-02-23T05:57:52.638Z,33.10
2023-02-23T05:58:52.905Z,37.60
2023-02-23T05:59:52.982Z,31.90
2023-02-23T06:00:53.165Z,36.40
2023-02-23T06:01:53.454Z,36.60
2023-02-23T06:02:53.628Z,30.10
2023-02-23T06:03:53.749Z,40.30
2023-02-23T06:04:53.939Z,39.00
2023-02-23T06:05:54.055Z,26.40
2023-02-23T06:06:54.251Z,34.30
2023-02-23T06:07:54.436Z,34.30
2023-02-23T06:08:54.565Z,32.20
2023-02-23T06:09:54.732Z,31.70
2023-02-23T06:10:54.893Z,39.40
2023-02-23T06:11:55.089Z,34.00
2023-02-23T06:12:55.256Z,36.80
2023-02-23T06:13:55.421Z,35.50
2023-02-23T06:14:55.581Z,31.00
2023-02-23T06:15:55.865Z,30.50
2023-02-23T06:16:56.056Z,34.40
2023-02-23T06:17:56.122Z,34.30
2023-02-23T06:18:56.292Z,34.40
2023-02-23T06:19:56.465Z,35.40
2023-02-23T06:20:56.678Z,32.50
2023-02-23T06:21:56.814Z,40.00
2023-02-23T06:22:57.063Z,33.60
2023-02-23T06:23:57.155Z,33.30
2023-02-23T06:24:57.332Z,36.50
2023-02-23T06:25:57.488Z,28.60
2023-02-23T06:26:57.676Z,36.80
2023-02-23T06:27:57.830Z,32.00
2023-02-23T06:28:58.008Z,39.20
2023-02-23T06:29:58.180Z,31.20
2023-02-23T06:30:58.488Z,40.90
2023-02-23T06:32:00.725Z,43.90
2023-02-23T06:32:58.719Z,35.10
2023-02-23T06:33:58.901Z,36.40
2023-02-23T06:34:59.070Z,34.00
2023-02-23T06:35:59.298Z,34.40
2023-02-23T06:36:59.443Z,34.20
2023-02-23T06:37:59.604Z,33.50
2023-02-23T06:38:59.863Z,27.80
2023-02-23T06:39:59.939Z,30.50
2023-02-23T06:41:00.123Z,32.80
2023-02-23T06:42:00.399Z,28.60
2023-02-23T06:43:00.474Z,28.10
2023-02-23T06:44:00.670Z,36.20
2023-02-23T06:45:00.831Z,32.50
2023-02-23T06:46:01.011Z,28.80
2023-02-23T06:47:01.209Z,33.80
2023-02-23T06:48:01.364Z,36.80
2023-02-23T06:49:01.566Z,28.70
2023-02-23T06:50:01.716Z,36.00
2023-02-23T06:51:01.924Z,34.70
2023-02-23T06:52:02.072Z,29.50
2023-02-23T06:53:02.269Z,36.30
2023-02-23T06:54:02.394Z,33.90
2023-02-23T06:55:02.583Z,29.70
2023-02-23T06:56:02.774Z,36.10
2023-02-23T06:57:02.939Z,32.70
2023-02-23T06:58:03.099Z,30.00
2023-02-23T06:59:03.259Z,36.80
2023-02-23T07:00:03.420Z,39.70
2023-02-23T07:01:03.607Z,30.70
2023-02-23T07:02:03.860Z,32.30
2023-02-23T07:03:03.936Z,30.00
2023-02-23T07:04:04.111Z,35.10
2023-02-23T07:05:04.319Z,38.50
2023-02-23T07:06:04.428Z,32.50
2023-02-23T07:07:04.638Z,29.60
2023-02-23T07:08:04.800Z,37.20
2023-02-23T07:09:04.954Z,39.10
2023-02-23T07:10:05.139Z,37.30
2023-02-23T07:11:05.331Z,34.60
2023-02-23T07:12:05.503Z,30.60
2023-02-23T07:13:05.652Z,32.30
2023-02-23T07:14:07.702Z,33.70
2023-02-23T07:15:06.034Z,31.60
2023-02-23T07:16:06.246Z,32.50
2023-02-23T07:17:06.391Z,29.40
2023-02-23T07:18:06.595Z,31.10
2023-02-23T07:19:06.752Z,35.10
2023-02-23T07:20:06.925Z,33.90
2023-02-23T07:21:07.165Z,28.00
2023-02-23T07:22:07.318Z,30.10
2023-02-23T07:23:07.481Z,39.20
2023-02-23T07:24:07.715Z,29.60
2023-02-23T07:25:07.870Z,36.00
2023-02-23T07:26:08.033Z,31.40
2023-02-23T07:27:08.236Z,31.30
2023-02-23T07:28:08.402Z,38.80
2023-02-23T07:29:08.584Z,28.00
2023-02-23T07:30:08.745Z,33.30
2023-02-23T07:31:08.901Z,34.30
2023-02-23T07:32:09.151Z,31.90
2023-02-23T07:33:09.239Z,27.10
2023-02-23T07:34:09.431Z,34.30
2023-02-23T07:35:09.594Z,32.10
2023-02-23T07:36:09.749Z,31.30
2023-02-23T07:37:09.990Z,36.20
2023-02-23T07:38:10.082Z,34.70
2023-02-23T07:39:10.248Z,29.00
2023-02-23T07:40:10.394Z,32.40
2023-02-23T07:41:10.582Z,27.10
2023-02-23T07:42:10.753Z,28.90
2023-02-23T07:43:10.910Z,31.50
2023-02-23T07:44:11.104Z,29.60
2023-02-23T07:45:11.292Z,29.80
2023-02-23T07:46:11.456Z,32.80
2023-02-23T07:47:11.658Z,34.30
2023-02-23T07:48:11.803Z,27.50
2023-02-23T07:49:11.994Z,28.80
2023-02-23T07:50:12.149Z,33.20
2023-02-23T07:51:12.341Z,31.20
2023-02-23T07:52:12.540Z,30.80
2023-02-23T07:53:12.722Z,32.60
2023-02-23T07:54:12.874Z,30.10
2023-02-23T07:55:13.093Z,29.10
2023-02-23T07:56:13.220Z,30.40
2023-02-23T07:57:13.428Z,29.80
2023-02-23T07:58:13.620Z,33.30
2023-02-23T07:59:13.734Z,28.20
2023-02-23T08:00:13.914Z,26.40
2023-02-23T08:01:14.202Z,42.70
2023-02-23T08:02:14.247Z,32.90
2023-02-23T08:03:14.396Z,30.80
2023-02-23T08:04:14.749Z,35.90
2023-02-23T08:05:14.715Z,31.10
2023-02-23T08:06:14.909Z,33.70
2023-02-23T08:07:15.116Z,27.80
2023-02-23T08:08:15.260Z,34.80
2023-02-23T08:09:15.454Z,29.60
2023-02-23T08:10:15.611Z,36.10
2023-02-23T08:11:15.837Z,31.30
2023-02-23T08:12:16.013Z,31.50
2023-02-23T08:13:16.164Z,30.60
2023-02-23T08:14:16.324Z,29.50
2023-02-23T08:15:16.494Z,31.80
2023-02-23T08:16:16.718Z,36.60
2023-02-23T08:17:16.843Z,28.10
2023-02-23T08:18:17.012Z,32.30
2023-02-23T08:19:17.183Z,30.40
2023-02-23T08:20:17.366Z,30.30
2023-02-23T08:21:17.658Z,29.60
2023-02-23T08:22:17.720Z,27.70
2023-02-23T08:23:17.906Z,36.50
2023-02-23T08:24:18.003Z,34.80
2023-02-23T08:25:18.220Z,33.30
2023-02-23T08:26:18.405Z,33.90
2023-02-23T08:27:18.574Z,29.00
2023-02-23T08:28:18.761Z,32.80
2023-02-23T08:29:18.897Z,34.80
2023-02-23T08:30:19.051Z,34.90
2023-02-23T08:31:19.707Z,28.80
2023-02-23T08:32:19.441Z,26.00
2023-02-23T08:33:19.617Z,36.70
2023-02-23T08:34:19.736Z,28.60
2023-02-23T08:35:19.907Z,31.60
2023-02-23T08:36:20.063Z,27.00
2023-02-23T08:37:20.241Z,28.40
2023-02-23T08:38:20.393Z,33.50
2023-02-23T08:39:20.642Z,27.80
2023-02-23T08:40:20.772Z,34.50
2023-02-23T08:41:21.279Z,31.70
2023-02-23T08:42:21.172Z,31.40
2023-02-23T08:43:21.250Z,27.80
2023-02-23T08:44:21.436Z,31.30
2023-02-23T08:45:21.622Z,30.70
2023-02-23T08:46:21.806Z,27.40
2023-02-23T08:47:21.976Z,34.40
2023-02-23T08:48:22.135Z,30.50
2023-02-23T08:49:22.290Z,31.10
2023-02-23T08:50:22.447Z,28.40
2023-02-23T08:51:22.608Z,28.70
2023-02-23T08:52:22.790Z,32.60
2023-02-23T08:53:22.943Z,31.10
2023-02-23T08:54:23.109Z,25.40
2023-02-23T08:55:23.296Z,26.70
2023-02-23T08:56:23.451Z,23.70
2023-02-23T08:57:23.642Z,26.60
2023-02-23T08:58:23.827Z,25.20
2023-02-23T08:59:23.955Z,29.60
2023-02-23T09:00:24.196Z,25.30
2023-02-23T09:01:24.309Z,27.30
2023-02-23T09:02:24.457Z,30.20
2023-02-23T09:03:24.606Z,23.90
2023-02-23T09:04:24.756Z,27.20
2023-02-23T09:05:25.050Z,24.10
2023-02-23T09:06:25.148Z,25.50
2023-02-23T09:07:25.353Z,23.70
2023-02-23T09:08:25.505Z,25.10
2023-02-23T09:09:25.660Z,33.10
2023-02-23T09:10:25.900Z,28.00
2023-02-23T09:11:26.002Z,27.90
2023-02-23T09:12:26.167Z,28.20
2023-02-23T09:13:26.314Z,24.10
2023-02-23T09:14:26.479Z,32.70
2023-02-23T09:15:26.636Z,27.30
2023-02-23T09:16:26.803Z,27.90
2023-02-23T09:17:27.025Z,27.30
2023-02-23T09:18:27.166Z,32.70
2023-02-23T09:19:27.337Z,23.60
2023-02-23T09:20:27.497Z,30.90
2023-02-23T09:21:27.675Z,26.00
2023-02-23T09:22:27.853Z,23.90
2023-02-23T09:23:28.011Z,32.70
2023-02-23T09:24:28.174Z,24.30
2023-02-23T09:25:28.405Z,23.30
2023-02-23T09:26:28.515Z,22.50
2023-02-23T09:27:28.694Z,25.20
2023-02-23T09:28:30.182Z,25.60
2023-02-23T09:29:29.025Z,22.80
2023-02-23T09:30:29.231Z,23.20
2023-02-23T09:31:29.382Z,26.60
2023-02-23T09:32:29.543Z,25.80
2023-02-23T09:33:29.730Z,28.00
2023-02-23T09:34:29.853Z,27.20
2023-02-23T09:35:30.050Z,28.20
2023-02-23T09:36:30.192Z,22.60
2023-02-23T09:37:30.367Z,30.60
2023-02-23T09:38:30.535Z,25.80
2023-02-23T09:39:37.986Z,25.90
2023-02-23T09:40:31.871Z,23.10
2023-02-23T09:41:31.034Z,26.60
2023-02-23T09:42:31.204Z,22.90
2023-02-23T09:43:31.391Z,22.80
2023-02-23T09:44:31.557Z,21.10
2023-02-23T09:45:31.715Z,28.70
2023-02-23T09:46:31.895Z,23.10
2023-02-23T09:47:32.065Z,18.60
2023-02-23T09:48:32.288Z,24.60
2023-02-23T09:49:32.422Z,25.60
2023-02-23T09:50:32.596Z,26.80
2023-02-23T09:51:32.785Z,21.80
2023-02-23T09:52:32.954Z,21.30
2023-02-23T09:53:34.127Z,23.60
2023-02-23T09:54:33.316Z,21.10
2023-02-23T09:55:33.498Z,23.80
2023-02-23T09:56:33.668Z,21.30
2023-02-23T09:57:33.827Z,17.30
2023-02-23T09:58:34.099Z,20.50
2023-02-23T09:59:34.169Z,20.20
2023-02-23T10:00:34.340Z,23.90
2023-02-23T10:01:34.558Z,19.80
2023-02-23T10:02:34.691Z,23.70
2023-02-23T10:03:34.896Z,19.70
2023-02-23T10:04:35.058Z,26.50
2023-02-23T10:05:35.230Z,16.70
2023-02-23T10:06:35.400Z,22.60
2023-02-23T10:07:35.573Z,29.50
2023-02-23T10:08:35.753Z,22.80
2023-02-23T10:09:35.927Z,18.90
2023-02-23T10:10:36.195Z,21.20
2023-02-23T10:11:38.445Z,26.10
2023-02-23T10:12:36.453Z,22.00
2023-02-23T10:13:36.643Z,20.90
2023-02-23T10:14:36.806Z,20.80
2023-02-23T10:15:37.038Z,20.40
2023-02-23T10:16:37.133Z,26.50
2023-02-23T10:17:37.303Z,16.40
2023-02-23T10:18:46.559Z,21.40
2023-02-23T10:19:38.674Z,19.20
2023-02-23T10:20:37.844Z,19.80
2023-02-23T10:21:38.013Z,22.00
2023-02-23T10:22:38.183Z,18.80
2023-02-23T10:23:38.366Z,18.80
2023-02-23T10:24:38.552Z,26.70
2023-02-23T10:25:38.716Z,23.00
2023-02-23T10:26:38.903Z,21.50
2023-02-23T10:27:39.063Z,18.70
2023-02-23T10:28:39.247Z,20.90
2023-02-23T10:29:39.501Z,24.20
2023-02-23T10:30:39.640Z,21.00
2023-02-23T10:31:39.816Z,21.20
2023-02-23T10:32:39.986Z,20.60
2023-02-23T10:33:40.125Z,26.10
2023-02-23T10:34:40.272Z,22.00
2023-02-23T10:35:40.455Z,20.80
2023-02-23T10:36:40.604Z,25.60
2023-02-23T10:37:40.762Z,22.50
2023-02-23T10:38:40.940Z,20.90
2023-02-23T10:39:41.093Z,18.60
2023-02-23T10:40:41.252Z,23.50
2023-02-23T10:41:41.404Z,20.30
2023-02-23T10:42:41.613Z,20.60
2023-02-23T10:43:41.798Z,20.50
2023-02-23T10:44:41.942Z,18.30
2023-02-23T10:45:42.131Z,20.30
2023-02-23T10:46:42.340Z,22.20
2023-02-23T10:47:42.470Z,20.30
2023-02-23T10:48:42.672Z,20.70
2023-02-23T10:49:42.817Z,24.60
2023-02-23T10:50:42.998Z,24.00
2023-02-23T10:51:43.146Z,22.90
2023-02-23T10:52:43.312Z,23.20
2023-02-23T10:53:43.495Z,23.60
2023-02-23T10:54:43.644Z,23.70
2023-02-23T10:55:43.804Z,20.80
2023-02-23T10:56:43.998Z,20.20
2023-02-23T10:57:44.183Z,20.70
2023-02-23T10:58:44.364Z,21.60
2023-02-23T10:59:44.506Z,21.20
2023-02-23T11:00:44.706Z,20.30
2023-02-23T11:02:00.500Z,24.40
2023-02-23T11:02:46.078Z,18.90
2023-02-23T11:03:46.899Z,22.70
2023-02-23T11:04:45.394Z,19.70
2023-02-23T11:05:45.574Z,22.00
2023-02-23T11:06:45.721Z,20.50
2023-02-23T11:07:45.902Z,21.80
2023-02-23T11:08:46.063Z,21.20
2023-02-23T11:09:48.100Z,18.50
2023-02-23T11:10:46.380Z,21.20
2023-02-23T11:11:46.531Z,19.50
2023-02-23T11:12:46.734Z,18.30
2023-02-23T11:13:46.900Z,22.10
2023-02-23T11:14:47.082Z,24.10
2023-02-23T11:15:50.902Z,24.70
2023-02-23T11:16:47.414Z,17.80
2023-02-23T11:17:47.570Z,19.80
2023-02-23T11:18:47.780Z,25.80
2023-02-23T11:19:47.922Z,18.70
2023-02-23T11:20:48.113Z,21.70
2023-02-23T11:21:48.271Z,17.70
2023-02-23T11:22:48.442Z,24.00
2023-02-23T11:23:48.611Z,19.60
2023-02-23T11:24:48.761Z,19.30
2023-02-23T11:25:49.573Z,21.30
2023-02-23T11:26:49.120Z,21.60
2023-02-23T11:27:49.267Z,27.90
2023-02-23T11:28:49.440Z,18.60
2023-02-23T11:29:49.589Z,22.70
2023-02-23T11:30:49.853Z,18.50
2023-02-23T11:31:50.090Z,21.50
2023-02-23T11:32:50.185Z,22.70
2023-02-23T11:33:50.343Z,24.20
2023-02-23T11:34:50.488Z,19.90
2023-02-23T11:35:50.630Z,23.30
2023-02-23T11:36:50.788Z,20.60
2023-02-23T11:37:50.955Z,18.90
2023-02-23T11:38:51.220Z,23.00
2023-02-23T11:39:51.264Z,23.50
2023-02-23T11:40:51.431Z,20.20
2023-02-23T11:41:51.607Z,24.20
2023-02-23T11:42:51.758Z,21.60
2023-02-23T11:43:51.933Z,21.80
2023-02-23T11:44:52.101Z,19.40
2023-02-23T11:45:52.316Z,21.00
2023-02-23T11:46:52.532Z,19.80
2023-02-23T11:47:52.585Z,21.70
2023-02-23T11:48:52.750Z,20.10
2023-02-23T11:49:52.895Z,18.40
2023-02-23T11:50:53.092Z,20.50
2023-02-23T11:51:53.241Z,21.30
2023-02-23T11:52:53.420Z,20.50
2023-02-23T11:53:53.578Z,20.90
2023-02-23T11:54:53.731Z,20.20
2023-02-23T11:55:53.892Z,18.90
2023-02-23T11:56:54.069Z,17.90
2023-02-23T11:57:54.217Z,18.60
2023-02-23T11:58:54.404Z,20.70
2023-02-23T11:59:54.560Z,20.60
2023-02-23T12:00:54.721Z,22.30
2023-02-23T12:01:54.891Z,22.60
2023-02-23T12:02:55.055Z,20.70
2023-02-23T12:03:55.212Z,19.20
2023-02-23T12:04:55.395Z,20.70
2023-02-23T12:05:55.537Z,21.50
2023-02-23T12:06:55.720Z,23.00
2023-02-23T12:07:55.854Z,23.30
2023-02-23T12:08:56.025Z,20.00
2023-02-23T12:09:56.176Z,22.50
2023-02-23T12:10:56.391Z,20.40
2023-02-23T12:11:56.550Z,19.40
2023-02-23T12:12:56.712Z,19.10
2023-02-23T12:13:56.879Z,20.70
2023-02-23T12:14:57.065Z,19.50
2023-02-23T12:15:57.206Z,20.10
2023-02-23T12:16:57.367Z,23.70
2023-02-23T12:17:57.519Z,23.40
2023-02-23T12:18:57.732Z,19.50
2023-02-23T12:19:57.882Z,21.60
2023-02-23T12:20:58.061Z,22.80
2023-02-23T12:21:58.187Z,18.70
2023-02-23T12:22:58.388Z,21.10
2023-02-23T12:23:58.570Z,22.30
2023-02-23T12:24:58.719Z,22.30
2023-02-23T12:25:58.869Z,19.90
2023-02-23T12:26:59.067Z,23.20
2023-02-23T12:28:07.609Z,21.00
2023-02-23T12:29:00.425Z,21.20
2023-02-23T12:29:59.556Z,23.90
2023-02-23T12:30:59.767Z,20.50
2023-02-23T12:32:00.019Z,21.30
2023-02-23T12:33:00.121Z,22.10
2023-02-23T12:34:00.289Z,20.20
2023-02-23T12:35:00.446Z,20.40
2023-02-23T12:36:00.613Z,19.50
2023-02-23T12:37:00.795Z,20.90
2023-02-23T12:38:00.992Z,22.10
2023-02-23T12:39:01.154Z,20.70
2023-02-23T12:40:01.325Z,23.60
2023-02-23T12:41:01.467Z,22.10
2023-02-23T12:42:01.632Z,23.00
2023-02-23T12:43:01.823Z,23.30
2023-02-23T12:44:02.001Z,21.70
2023-02-23T12:45:02.162Z,20.30
2023-02-23T12:46:02.395Z,23.60
2023-02-23T12:47:02.502Z,22.50
2023-02-23T12:48:02.655Z,23.60
2023-02-23T12:49:02.864Z,23.80
2023-02-23T12:50:03.038Z,28.50
2023-02-23T12:51:03.174Z,23.20
2023-02-23T12:52:03.331Z,24.30
2023-02-23T12:53:03.501Z,20.30
2023-02-23T12:54:03.661Z,24.00
2023-02-23T12:55:03.816Z,22.70